Terminal Aerodrome Forecast
Issued by NWS

Home | Current Version | Previous Version | Text Only | Print | Product List | Glossary Off
Versions: 1 2 3 4 5 6 7 8 9 10 11 12 13 14 15 16 17

000
FTUS43 KGRB 052300
TAFAUW
TAF
KAUW 052334Z 0600/0624 11008KT P6SM SCT070 BKN120
     FM060300 10005KT P6SM BKN040 OVC070
     FM060500 11005KT P6SM SCT020 OVC035
     FM060800 12007KT P6SM BKN012 OVC020
     FM062100 13008KT P6SM SCT025=

USA.gov is the U.S. government's official web portal to all federal, state and local government web resources and services.